Time;durP1;ratioP1;P1;durP2;ratioP2;P2;SDS_P1;SDS_P2;PMS_P1;PMS_P2;Temp;Humidity;BMP_temperature;BMP_pressure;BME280_temperature;BME280_humidity;BME280_pressure;Samples;Min_cycle;Max_cycle;Signal;HPM_P1;HPM_P2
2024/01/10 00:00:18;;;;;;;19.65;13.90;;;;;;;;;;2062901;28;20513;-79
2024/01/10 00:01:40;;;;;;;17.35;14.05;;;;;;;;;;2062299;28;20101;-79
2024/01/10 00:03:01;;;;;;;15.55;12.63;;;;;;;;;;2055145;28;20501;-77
2024/01/10 00:04:22;;;;;;;16.50;12.52;;;;;;;;;;2053619;28;20034;-80
2024/01/10 00:05:42;;;;;;;12.85;11.52;;;;;;;;;;2055203;28;20019;-80
2024/01/10 00:07:04;;;;;;;13.10;11.05;;;;;;;;;;2051142;28;20146;-78
2024/01/10 00:08:26;;;;;;;11.68;10.18;;;;;;;;;;2059409;28;20050;-78
2024/01/10 00:09:47;;;;;;;12.95;11.50;;;;;;;;;;2064401;28;20081;-78
2024/01/10 00:11:08;;;;;;;19.40;12.57;;;;;;;;;;2058793;28;20050;-78
2024/01/10 00:12:33;;;;;;;15.07;11.38;;;;;;;;;;2057024;28;20023;-78
2024/01/10 00:13:59;;;;;;;13.90;10.60;;;;;;;;;;2061606;28;20057;-77
2024/01/10 00:15:20;;;;;;;22.83;11.88;;;;;;;;;;2064495;28;20031;-78
2024/01/10 00:16:41;;;;;;;15.45;12.30;;;;;;;;;;2058293;28;20460;-78
2024/01/10 00:18:02;;;;;;;13.77;11.18;;;;;;;;;;2061866;28;20038;-78
2024/01/10 00:19:24;;;;;;;16.65;11.80;;;;;;;;;;2059632;28;20078;-78
2024/01/10 00:20:45;;;;;;;12.00;10.75;;;;;;;;;;2062250;28;20034;-78
2024/01/10 00:22:06;;;;;;;11.13;10.02;;;;;;;;;;2066589;28;20034;-79
2024/01/10 00:23:26;;;;;;;12.85;11.30;;;;;;;;;;2066026;28;20122;-78
2024/01/10 00:24:47;;;;;;;17.15;11.52;;;;;;;;;;2066040;28;20034;-78
2024/01/10 00:26:08;;;;;;;18.10;12.73;;;;;;;;;;2057387;28;20062;-79
2024/01/10 00:27:29;;;;;;;18.65;10.82;;;;;;;;;;2056605;28;20035;-78
2024/01/10 00:28:50;;;;;;;13.00;10.98;;;;;;;;;;2057036;28;20097;-79
2024/01/10 00:30:11;;;;;;;12.82;11.52;;;;;;;;;;2058863;28;20344;-78
2024/01/10 00:31:32;;;;;;;13.10;11.63;;;;;;;;;;2065773;28;20033;-79
2024/01/10 00:32:53;;;;;;;16.00;12.02;;;;;;;;;;2057036;28;20030;-78
2024/01/10 00:34:14;;;;;;;18.10;12.07;;;;;;;;;;2061387;28;20050;-79
2024/01/10 00:35:35;;;;;;;13.43;12.05;;;;;;;;;;2060511;28;20494;-78
2024/01/10 00:36:56;;;;;;;14.70;12.30;;;;;;;;;;2053758;28;20126;-79
2024/01/10 00:38:17;;;;;;;15.82;11.93;;;;;;;;;;2052435;28;20035;-79
2024/01/10 00:39:39;;;;;;;14.10;12.10;;;;;;;;;;2059602;28;20093;-78
2024/01/10 00:41:00;;;;;;;17.10;12.30;;;;;;;;;;2062302;28;20041;-78
2024/01/10 00:42:21;;;;;;;15.68;12.38;;;;;;;;;;2064269;28;20030;-79
2024/01/10 00:43:42;;;;;;;16.65;12.23;;;;;;;;;;2062543;28;20097;-79
2024/01/10 00:45:03;;;;;;;15.68;12.75;;;;;;;;;;2061301;28;21015;-79
2024/01/10 00:46:24;;;;;;;13.75;11.55;;;;;;;;;;2053263;28;20117;-79
2024/01/10 00:47:45;;;;;;;16.05;12.73;;;;;;;;;;2058852;28;20026;-79
2024/01/10 00:49:06;;;;;;;17.55;12.52;;;;;;;;;;2060555;28;20447;-79
2024/01/10 00:50:27;;;;;;;15.15;11.73;;;;;;;;;;2063075;28;20612;-78
2024/01/10 00:51:48;;;;;;;15.27;12.38;;;;;;;;;;2059670;28;20057;-78
2024/01/10 00:53:09;;;;;;;15.45;11.88;;;;;;;;;;2060923;28;20450;-79
2024/01/10 00:54:30;;;;;;;14.45;12.75;;;;;;;;;;2059833;28;20041;-79
2024/01/10 00:55:50;;;;;;;16.15;13.13;;;;;;;;;;2061922;28;20189;-79
2024/01/10 00:57:11;;;;;;;13.63;11.52;;;;;;;;;;2061805;28;20027;-79
2024/01/10 00:58:32;;;;;;;17.52;12.30;;;;;;;;;;2058719;28;20054;-79
2024/01/10 00:59:53;;;;;;;20.60;13.88;;;;;;;;;;2061977;28;20030;-79
2024/01/10 01:01:14;;;;;;;15.00;13.02;;;;;;;;;;2060355;28;20379;-79
2024/01/10 01:02:35;;;;;;;14.05;12.18;;;;;;;;;;2058001;28;20470;-79
2024/01/10 01:03:56;;;;;;;16.85;12.25;;;;;;;;;;2063790;28;20098;-79
2024/01/10 01:05:17;;;;;;;13.70;10.80;;;;;;;;;;2061166;28;20089;-79
2024/01/10 01:06:38;;;;;;;26.98;15.13;;;;;;;;;;2063750;28;20045;-79
2024/01/10 01:07:59;;;;;;;17.90;12.93;;;;;;;;;;2061327;28;20506;-78
2024/01/10 01:09:19;;;;;;;15.40;12.68;;;;;;;;;;2062801;28;20101;-78
2024/01/10 01:10:40;;;;;;;16.30;12.32;;;;;;;;;;2056007;28;20042;-79
2024/01/10 01:12:01;;;;;;;15.23;12.50;;;;;;;;;;2051684;28;20078;-79
2024/01/10 01:13:22;;;;;;;18.65;13.57;;;;;;;;;;2050041;28;20495;-79
2024/01/10 01:14:43;;;;;;;16.75;14.02;;;;;;;;;;2051887;28;20038;-80
2024/01/10 01:16:04;;;;;;;19.75;14.15;;;;;;;;;;2051060;28;20031;-78
2024/01/10 01:17:25;;;;;;;14.60;12.82;;;;;;;;;;2059802;28;20030;-79
2024/01/10 01:18:46;;;;;;;14.40;12.23;;;;;;;;;;2060494;28;20522;-78
2024/01/10 01:20:07;;;;;;;16.63;12.63;;;;;;;;;;2062228;28;20120;-79
2024/01/10 01:21:28;;;;;;;17.15;13.93;;;;;;;;;;2061544;28;20038;-79
2024/01/10 01:22:49;;;;;;;18.10;13.15;;;;;;;;;;2061196;28;20034;-78
2024/01/10 01:24:11;;;;;;;15.90;12.77;;;;;;;;;;2061590;28;20038;-79
2024/01/10 01:25:31;;;;;;;18.08;13.00;;;;;;;;;;2054949;28;20034;-79
2024/01/10 01:26:52;;;;;;;18.23;12.88;;;;;;;;;;2054544;28;20035;-79
2024/01/10 01:28:13;;;;;;;17.63;13.27;;;;;;;;;;2058841;28;20038;-79
2024/01/10 01:29:34;;;;;;;16.23;13.65;;;;;;;;;;2060440;28;20034;-80
2024/01/10 01:30:55;;;;;;;17.52;13.50;;;;;;;;;;2053819;28;20038;-79
2024/01/10 01:32:16;;;;;;;15.60;12.75;;;;;;;;;;2057714;28;20097;-79
2024/01/10 01:33:38;;;;;;;14.70;12.63;;;;;;;;;;2058842;28;20035;-79
2024/01/10 01:34:59;;;;;;;14.88;11.93;;;;;;;;;;2052985;28;20089;-79
2024/01/10 01:36:20;;;;;;;16.92;13.48;;;;;;;;;;2059113;28;20494;-79
2024/01/10 01:37:41;;;;;;;18.05;13.48;;;;;;;;;;2066639;28;20038;-79
2024/01/10 01:39:03;;;;;;;22.60;13.75;;;;;;;;;;2060703;28;20039;-79
2024/01/10 01:40:24;;;;;;;26.75;24.38;;;;;;;;;;2052599;28;20511;-79
2024/01/10 01:41:45;;;;;;;12.95;11.65;;;;;;;;;;2051033;28;20483;-79
2024/01/10 01:43:22;;;;;;;16.55;12.27;;;;;;;;;;2061632;28;20388;-79
2024/01/10 01:44:43;;;;;;;13.23;11.88;;;;;;;;;;2060192;28;20495;-78
2024/01/10 01:46:04;;;;;;;16.30;12.38;;;;;;;;;;2064160;28;20030;-79
2024/01/10 01:47:27;;;;;;;27.92;16.17;;;;;;;;;;2057364;28;20039;-79
2024/01/10 01:48:48;;;;;;;18.52;14.00;;;;;;;;;;2060922;28;20078;-79
2024/01/10 01:50:10;;;;;;;13.98;11.25;;;;;;;;;;2064521;28;20478;-78
2024/01/10 01:51:31;;;;;;;18.58;12.90;;;;;;;;;;2049704;28;20042;-79
2024/01/10 01:52:52;;;;;;;13.52;12.10;;;;;;;;;;2054756;28;20039;-79
2024/01/10 01:54:14;;;;;;;17.00;11.93;;;;;;;;;;2053936;28;20050;-79
2024/01/10 01:55:35;;;;;;;13.23;11.40;;;;;;;;;;2059262;28;20030;-79
2024/01/10 01:56:57;;;;;;;14.63;12.23;;;;;;;;;;2070305;28;20592;-79
2024/01/10 01:58:18;;;;;;;15.82;11.55;;;;;;;;;;2052193;28;20046;-79
2024/01/10 01:59:39;;;;;;;16.75;12.15;;;;;;;;;;2061393;28;20102;-79
2024/01/10 02:01:02;;;;;;;15.43;11.55;;;;;;;;;;2052601;28;20043;-79
2024/01/10 02:02:22;;;;;;;;;;;;;;;;;;2053722;28;20087;-79
2024/01/10 02:03:44;;;;;;;14.52;11.48;;;;;;;;;;2053625;28;19906;-79
2024/01/10 02:05:05;;;;;;;15.07;12.60;;;;;;;;;;2062449;28;20030;-79
2024/01/10 02:06:25;;;;;;;14.48;11.13;;;;;;;;;;2063791;28;20057;-79
2024/01/10 02:07:46;;;;;;;15.05;12.57;;;;;;;;;;2055516;28;20034;-80
2024/01/10 02:09:08;;;;;;;22.27;13.55;;;;;;;;;;2047341;29;20554;-80
2024/01/10 02:10:29;;;;;;;17.63;13.15;;;;;;;;;;2046190;29;20043;-79
2024/01/10 02:11:50;;;;;;;14.60;12.52;;;;;;;;;;2056319;28;20027;-79
2024/01/10 02:13:11;;;;;;;17.38;12.43;;;;;;;;;;2054908;28;20030;-79
2024/01/10 02:14:32;;;;;;;15.73;13.23;;;;;;;;;;2060512;28;20030;-79
2024/01/10 02:15:54;;;;;;;14.00;11.23;;;;;;;;;;2058687;28;20038;-79
2024/01/10 02:17:15;;;;;;;27.80;14.73;;;;;;;;;;2053892;28;20031;-79
2024/01/10 02:18:36;;;;;;;16.42;12.52;;;;;;;;;;2061125;28;20042;-79
2024/01/10 02:20:17;;;;;;;14.50;11.32;;;;;;;;;;2064040;28;20077;-79
2024/01/10 02:21:38;;;;;;;16.27;12.32;;;;;;;;;;2057649;28;20038;-79
2024/01/10 02:22:58;;;;;;;14.95;11.27;;;;;;;;;;2058090;28;20430;-79
2024/01/10 02:24:19;;;;;;;19.90;13.25;;;;;;;;;;2060797;28;20045;-80
2024/01/10 02:25:40;;;;;;;14.60;12.68;;;;;;;;;;2061209;28;20506;-80
2024/01/10 02:27:01;;;;;;;14.63;12.32;;;;;;;;;;2054583;28;20047;-80
2024/01/10 02:28:25;;;;;;;16.30;13.07;;;;;;;;;;2057034;28;20034;-80
2024/01/10 02:29:46;;;;;;;16.67;12.63;;;;;;;;;;2060793;28;20034;-79
2024/01/10 02:31:07;;;;;;;13.13;11.82;;;;;;;;;;2056582;28;20039;-80
2024/01/10 02:32:28;;;;;;;19.55;13.05;;;;;;;;;;2060458;28;20027;-79
2024/01/10 02:33:49;;;;;;;19.95;12.85;;;;;;;;;;2055051;28;20031;-80
2024/01/10 02:35:10;;;;;;;18.85;14.18;;;;;;;;;;2051963;28;20097;-79
2024/01/10 02:36:31;;;;;;;13.27;11.02;;;;;;;;;;2053751;28;20042;-80
2024/01/10 02:37:52;;;;;;;16.00;12.88;;;;;;;;;;2052130;28;20042;-79
2024/01/10 02:39:13;;;;;;;14.70;11.48;;;;;;;;;;2049186;28;20046;-80
2024/01/10 02:40:34;;;;;;;13.82;12.40;;;;;;;;;;2050936;28;20098;-79
2024/01/10 02:41:55;;;;;;;18.95;13.60;;;;;;;;;;2059270;28;20038;-80
2024/01/10 02:43:16;;;;;;;18.10;13.07;;;;;;;;;;2058790;28;20073;-80
2024/01/10 02:44:36;;;;;;;16.38;13.20;;;;;;;;;;2058122;28;20562;-79
2024/01/10 02:45:58;;;;;;;21.98;12.68;;;;;;;;;;2053155;28;20035;-80
2024/01/10 02:47:19;;;;;;;15.60;13.13;;;;;;;;;;2051229;28;20031;-79
2024/01/10 02:48:40;;;;;;;18.25;11.77;;;;;;;;;;2052290;28;20487;-79
2024/01/10 02:50:01;;;;;;;17.20;12.48;;;;;;;;;;2059612;28;20035;-80
2024/01/10 02:51:22;;;;;;;14.18;12.63;;;;;;;;;;2061276;28;20097;-79
2024/01/10 02:52:43;;;;;;;15.90;12.50;;;;;;;;;;2058779;28;20035;-80
2024/01/10 02:54:04;;;;;;;15.85;12.68;;;;;;;;;;2061341;28;20065;-80
2024/01/10 02:55:25;;;;;;;18.23;13.00;;;;;;;;;;2059881;28;20105;-80
2024/01/10 02:56:46;;;;;;;14.95;12.95;;;;;;;;;;2060154;28;20483;-80
2024/01/10 02:58:07;;;;;;;15.15;12.52;;;;;;;;;;2063061;28;20038;-79
2024/01/10 02:59:28;;;;;;;16.92;13.23;;;;;;;;;;2055222;28;20043;-80
2024/01/10 03:00:49;;;;;;;15.65;12.82;;;;;;;;;;2052005;28;20027;-80
2024/01/10 03:02:10;;;;;;;14.10;11.88;;;;;;;;;;2051679;28;20035;-80
2024/01/10 03:03:30;;;;;;;20.30;13.73;;;;;;;;;;2050592;28;20035;-80
2024/01/10 03:04:51;;;;;;;16.98;11.77;;;;;;;;;;2059291;28;20034;-79
2024/01/10 03:06:12;;;;;;;19.33;12.65;;;;;;;;;;2062025;28;20084;-80
2024/01/10 03:07:33;;;;;;;18.13;14.27;;;;;;;;;;2061896;28;20038;-80
2024/01/10 03:08:54;;;;;;;15.30;12.60;;;;;;;;;;2054082;28;20550;-81
2024/01/10 03:10:15;;;;;;;17.92;13.40;;;;;;;;;;2061331;28;21271;-80
2024/01/10 03:11:36;;;;;;;16.75;12.55;;;;;;;;;;2052487;28;20054;-79
2024/01/10 03:12:57;;;;;;;20.30;14.05;;;;;;;;;;2058235;28;20035;-80
2024/01/10 03:14:18;;;;;;;24.48;13.45;;;;;;;;;;2062886;28;20105;-79
2024/01/10 03:15:39;;;;;;;17.23;13.02;;;;;;;;;;2054394;28;20031;-80
2024/01/10 03:17:00;;;;;;;18.30;12.13;;;;;;;;;;2057573;28;20034;-79
2024/01/10 03:18:21;;;;;;;19.10;13.38;;;;;;;;;;2059409;28;20026;-80
2024/01/10 03:19:44;;;;;;;17.95;11.98;;;;;;;;;;2051463;28;20038;-80
2024/01/10 03:21:05;;;;;;;21.13;13.63;;;;;;;;;;2059780;28;20030;-80
2024/01/10 03:22:26;;;;;;;14.75;13.02;;;;;;;;;;2059518;28;20046;-79
2024/01/10 03:23:47;;;;;;;17.52;12.35;;;;;;;;;;2059054;28;20315;-80
2024/01/10 03:25:08;;;;;;;17.40;13.30;;;;;;;;;;2060390;28;20047;-80
2024/01/10 03:26:30;;;;;;;16.00;12.23;;;;;;;;;;2060245;28;20061;-80
2024/01/10 03:27:51;;;;;;;15.75;12.48;;;;;;;;;;2052304;28;20039;-80
2024/01/10 03:29:12;;;;;;;23.38;12.73;;;;;;;;;;2058065;28;20050;-80
2024/01/10 03:30:32;;;;;;;15.13;12.88;;;;;;;;;;2057828;28;20073;-80
2024/01/10 03:31:53;;;;;;;15.98;11.73;;;;;;;;;;2056011;28;21343;-80
2024/01/10 03:33:15;;;;;;;16.80;12.85;;;;;;;;;;2052068;28;20471;-80
2024/01/10 03:34:36;;;;;;;15.20;13.30;;;;;;;;;;2050237;28;20269;-80
2024/01/10 03:35:57;;;;;;;15.07;13.43;;;;;;;;;;2053430;28;20581;-79
2024/01/10 03:37:18;;;;;;;15.88;12.10;;;;;;;;;;2059083;28;20035;-80
2024/01/10 03:38:39;;;;;;;18.95;13.70;;;;;;;;;;2055972;28;20035;-80
2024/01/10 03:40:00;;;;;;;19.05;14.00;;;;;;;;;;2053991;28;20038;-80
2024/01/10 03:41:21;;;;;;;17.88;12.43;;;;;;;;;;2059377;28;20084;-80
2024/01/10 03:42:42;;;;;;;17.45;12.63;;;;;;;;;;2064970;28;20041;-79
2024/01/10 03:44:03;;;;;;;16.55;13.30;;;;;;;;;;2061966;28;20031;-80
2024/01/10 03:45:24;;;;;;;21.98;13.40;;;;;;;;;;2056317;28;20043;-80
2024/01/10 03:46:45;;;;;;;18.40;12.50;;;;;;;;;;2062003;28;20053;-80
2024/01/10 03:48:06;;;;;;;17.65;13.95;;;;;;;;;;2057025;28;20035;-80
2024/01/10 03:49:27;;;;;;;15.52;11.80;;;;;;;;;;2053020;28;20039;-80
2024/01/10 03:50:48;;;;;;;17.85;13.80;;;;;;;;;;2051696;28;20034;-80
2024/01/10 03:52:08;;;;;;;18.45;13.70;;;;;;;;;;2053105;28;20380;-80
2024/01/10 03:53:30;;;;;;;17.58;12.63;;;;;;;;;;2061322;28;20034;-79
2024/01/10 03:54:51;;;;;;;16.13;12.50;;;;;;;;;;2065283;28;20031;-80
2024/01/10 03:56:12;;;;;;;18.83;12.25;;;;;;;;;;2066274;28;20082;-80
2024/01/10 03:57:32;;;;;;;18.67;12.82;;;;;;;;;;2066164;28;20438;-80
2024/01/10 03:58:53;;;;;;;21.95;13.80;;;;;;;;;;2064880;28;20045;-79
2024/01/10 04:00:14;;;;;;;20.60;13.45;;;;;;;;;;2058962;28;20070;-79
2024/01/10 04:01:38;;;;;;;18.77;12.35;;;;;;;;;;2062902;28;20035;-79
2024/01/10 04:02:59;;;;;;;17.20;12.20;;;;;;;;;;2066064;28;20105;-78
2024/01/10 04:04:20;;;;;;;20.60;12.75;;;;;;;;;;2060394;28;20130;-79
2024/01/10 04:05:41;;;;;;;17.27;13.55;;;;;;;;;;2064358;28;20050;-80
2024/01/10 04:07:02;;;;;;;15.02;13.10;;;;;;;;;;2065086;28;20034;-80
2024/01/10 04:08:24;;;;;;;18.45;12.73;;;;;;;;;;2061612;28;20027;-79
2024/01/10 04:09:45;;;;;;;18.63;11.82;;;;;;;;;;2063749;28;20093;-80
2024/01/10 04:11:05;;;;;;;19.48;13.50;;;;;;;;;;2066705;28;20402;-79
2024/01/10 04:12:26;;;;;;;15.25;12.93;;;;;;;;;;2062531;28;20031;-79
2024/01/10 04:13:47;;;;;;;17.45;12.18;;;;;;;;;;2048023;28;20396;-80
2024/01/10 04:15:08;;;;;;;17.98;13.25;;;;;;;;;;2056766;28;20042;-80
2024/01/10 04:16:32;;;;;;;14.13;12.15;;;;;;;;;;2062898;28;20061;-80
2024/01/10 04:17:53;;;;;;;18.02;13.13;;;;;;;;;;2064549;28;20030;-80
2024/01/10 04:19:14;;;;;;;19.25;13.38;;;;;;;;;;2065586;28;20042;-78
2024/01/10 04:20:35;;;;;;;27.15;13.88;;;;;;;;;;2057729;28;20027;-80
2024/01/10 04:21:56;;;;;;;16.90;12.05;;;;;;;;;;2058823;28;20046;-79
2024/01/10 04:23:17;;;;;;;14.52;11.98;;;;;;;;;;2064134;28;20093;-80
2024/01/10 04:24:38;;;;;;;16.17;13.07;;;;;;;;;;2056323;28;20047;-80
2024/01/10 04:25:59;;;;;;;18.98;12.30;;;;;;;;;;2049903;28;20031;-80
2024/01/10 04:27:20;;;;;;;18.05;12.02;;;;;;;;;;2057823;28;20042;-80
2024/01/10 04:28:41;;;;;;;20.98;13.80;;;;;;;;;;2054824;28;20039;-80
2024/01/10 04:30:02;;;;;;;17.70;12.40;;;;;;;;;;2059358;28;20482;-80
2024/01/10 04:31:23;;;;;;;22.42;13.55;;;;;;;;;;2061270;28;20042;-80
2024/01/10 04:32:44;;;;;;;18.52;12.65;;;;;;;;;;2060508;28;20379;-80
2024/01/10 04:34:05;;;;;;;16.80;12.05;;;;;;;;;;2057976;28;20077;-80
2024/01/10 04:35:26;;;;;;;19.27;12.77;;;;;;;;;;2049722;28;20411;-79
2024/01/10 04:36:47;;;;;;;14.80;12.57;;;;;;;;;;2055311;28;20022;-80
2024/01/10 04:38:07;;;;;;;17.70;12.32;;;;;;;;;;2051510;28;20034;-80
2024/01/10 04:39:29;;;;;;;15.93;12.13;;;;;;;;;;2057297;28;21621;-80
2024/01/10 04:40:50;;;;;;;15.10;12.68;;;;;;;;;;2057719;28;20074;-80
2024/01/10 04:42:11;;;;;;;17.88;13.05;;;;;;;;;;2054050;28;20495;-80
2024/01/10 04:43:32;;;;;;;17.42;13.88;;;;;;;;;;2048577;28;20038;-80
2024/01/10 04:44:53;;;;;;;17.38;12.73;;;;;;;;;;2057826;28;20062;-80
2024/01/10 04:46:14;;;;;;;15.93;12.60;;;;;;;;;;2061168;28;20034;-80
2024/01/10 04:47:34;;;;;;;19.88;12.88;;;;;;;;;;2054305;28;20655;-80
2024/01/10 04:48:55;;;;;;;19.88;12.88;;;;;;;;;;2049495;28;20043;-80
2024/01/10 04:50:16;;;;;;;18.80;12.52;;;;;;;;;;2052820;28;20034;-80
2024/01/10 04:51:37;;;;;;;24.05;13.80;;;;;;;;;;2051402;28;20035;-80
2024/01/10 04:52:59;;;;;;;14.90;12.05;;;;;;;;;;2051281;28;20672;-80
2024/01/10 04:54:20;;;;;;;25.45;14.75;;;;;;;;;;2052891;28;20109;-80
2024/01/10 04:55:41;;;;;;;16.75;12.85;;;;;;;;;;2051051;28;21409;-80
2024/01/10 04:57:02;;;;;;;13.70;12.18;;;;;;;;;;2058652;28;20066;-80
2024/01/10 04:58:23;;;;;;;18.52;14.15;;;;;;;;;;2060969;28;20090;-80
2024/01/10 04:59:44;;;;;;;17.95;13.48;;;;;;;;;;2061264;28;20081;-80
2024/01/10 05:01:05;;;;;;;17.77;12.77;;;;;;;;;;2056730;28;20031;-80
2024/01/10 05:02:26;;;;;;;16.88;13.25;;;;;;;;;;2061501;28;20062;-80
2024/01/10 05:03:47;;;;;;;17.23;13.77;;;;;;;;;;2061896;28;20034;-80
2024/01/10 05:05:08;;;;;;;18.08;13.57;;;;;;;;;;2061026;28;20038;-80
2024/01/10 05:06:29;;;;;;;21.65;11.82;;;;;;;;;;2062537;28;20093;-80
2024/01/10 05:07:53;;;;;;;14.05;11.77;;;;;;;;;;2061653;28;20041;-80
2024/01/10 05:09:14;;;;;;;14.18;12.68;;;;;;;;;;2061919;28;20036;-80
2024/01/10 05:10:34;;;;;;;14.38;12.32;;;;;;;;;;2055780;28;20089;-80
2024/01/10 05:11:55;;;;;;;19.25;12.93;;;;;;;;;;2051334;28;20101;-80
2024/01/10 05:13:16;;;;;;;15.50;12.00;;;;;;;;;;2052284;28;20027;-80
2024/01/10 05:14:37;;;;;;;15.63;12.27;;;;;;;;;;2059545;28;20035;-80
2024/01/10 05:15:58;;;;;;;17.88;12.30;;;;;;;;;;2062408;28;20039;-80
2024/01/10 05:17:19;;;;;;;17.85;12.50;;;;;;;;;;2054865;28;20593;-80
2024/01/10 05:18:40;;;;;;;16.20;12.88;;;;;;;;;;2058994;28;21472;-80
2024/01/10 05:20:01;;;;;;;16.77;12.65;;;;;;;;;;2060013;28;20039;-80
2024/01/10 05:21:22;;;;;;;28.30;14.85;;;;;;;;;;2062653;28;20126;-80
2024/01/10 05:22:43;;;;;;;20.08;13.88;;;;;;;;;;2060463;28;20130;-80
2024/01/10 05:24:04;;;;;;;16.10;13.05;;;;;;;;;;2063439;28;20509;-80
2024/01/10 05:25:27;;;;;;;24.77;15.27;;;;;;;;;;2061947;28;20073;-80
2024/01/10 05:26:51;;;;;;;16.30;12.90;;;;;;;;;;2053793;28;20086;-80
2024/01/10 05:28:12;;;;;;;16.23;13.27;;;;;;;;;;2061230;28;20026;-81
2024/01/10 05:29:33;;;;;;;15.25;13.63;;;;;;;;;;2060062;28;20089;-80
2024/01/10 05:30:54;;;;;;;18.85;12.93;;;;;;;;;;2060920;28;20477;-80
2024/01/10 05:32:15;;;;;;;19.80;14.25;;;;;;;;;;2052740;28;20031;-80
2024/01/10 05:33:36;;;;;;;15.13;12.23;;;;;;;;;;2059841;28;20023;-80
2024/01/10 05:34:56;;;;;;;16.38;13.60;;;;;;;;;;2063137;28;20031;-80
2024/01/10 05:36:17;;;;;;;20.13;13.70;;;;;;;;;;2062125;28;20093;-80
2024/01/10 05:37:38;;;;;;;17.27;13.88;;;;;;;;;;2061854;28;20038;-80
2024/01/10 05:38:59;;;;;;;16.98;12.55;;;;;;;;;;2054184;28;20031;-80
2024/01/10 05:40:20;;;;;;;16.00;13.30;;;;;;;;;;2050641;28;20038;-80
2024/01/10 05:41:43;;;;;;;16.13;13.15;;;;;;;;;;2062786;28;20057;-80
2024/01/10 05:43:04;;;;;;;17.83;13.57;;;;;;;;;;2058580;28;20163;-80
2024/01/10 05:44:25;;;;;;;17.55;12.77;;;;;;;;;;2065076;28;20077;-80
2024/01/10 05:45:46;;;;;;;20.05;13.73;;;;;;;;;;2068385;28;20025;-80
2024/01/10 05:47:07;;;;;;;19.33;12.80;;;;;;;;;;2057104;28;20463;-80
2024/01/10 05:48:28;;;;;;;14.52;13.02;;;;;;;;;;2063950;28;20037;-81
2024/01/10 05:49:49;;;;;;;15.05;12.38;;;;;;;;;;2052712;28;20042;-80
2024/01/10 05:51:09;;;;;;;15.52;11.93;;;;;;;;;;2051342;28;20038;-81
2024/01/10 05:52:30;;;;;;;12.90;11.48;;;;;;;;;;2052581;28;20051;-81
2024/01/10 05:53:51;;;;;;;17.02;12.65;;;;;;;;;;2059895;28;20038;-80
2024/01/10 05:55:12;;;;;;;16.33;12.27;;;;;;;;;;2055943;28;20058;-81
2024/01/10 05:56:33;;;;;;;13.13;11.93;;;;;;;;;;2047921;29;20027;-80
2024/01/10 05:57:54;;;;;;;14.52;11.73;;;;;;;;;;2057117;28;20034;-81
2024/01/10 05:59:16;;;;;;;14.30;12.18;;;;;;;;;;2059867;28;20022;-82
2024/01/10 06:00:37;;;;;;;;;;;;;;;;;;2054817;28;20038;-80
2024/01/10 06:01:58;;;;;;;16.98;12.05;;;;;;;;;;2058722;28;19921;-80
2024/01/10 06:03:19;;;;;;;21.67;13.32;;;;;;;;;;2060258;28;21428;-80
2024/01/10 06:04:40;;;;;;;20.15;12.93;;;;;;;;;;2055645;28;20035;-81
2024/01/10 06:06:02;;;;;;;17.10;12.60;;;;;;;;;;2054054;28;20034;-80
2024/01/10 06:07:24;;;;;;;15.07;13.25;;;;;;;;;;2056359;28;20035;-82
2024/01/10 06:08:45;;;;;;;27.27;25.13;;;;;;;;;;2059634;28;20406;-80
2024/01/10 06:10:06;;;;;;;17.60;13.40;;;;;;;;;;2056643;28;20050;-80
2024/01/10 06:11:29;;;;;;;24.95;13.85;;;;;;;;;;2051399;28;20152;-81
2024/01/10 06:12:50;;;;;;;28.02;14.68;;;;;;;;;;2058699;28;20089;-81
2024/01/10 06:14:11;;;;;;;20.55;14.75;;;;;;;;;;2060795;28;20026;-81
2024/01/10 06:15:32;;;;;;;18.00;13.18;;;;;;;;;;2064007;28;20034;-81
2024/01/10 06:16:52;;;;;;;17.58;13.95;;;;;;;;;;2055183;28;20039;-81
2024/01/10 06:18:13;;;;;;;17.20;12.95;;;;;;;;;;2053745;28;20031;-81
2024/01/10 06:19:34;;;;;;;18.98;13.73;;;;;;;;;;2056476;28;20042;-81
2024/01/10 06:20:55;;;;;;;19.02;12.50;;;;;;;;;;2055155;28;20515;-81
2024/01/10 06:22:16;;;;;;;18.00;13.65;;;;;;;;;;2060899;28;20170;-81
2024/01/10 06:23:37;;;;;;;18.65;11.75;;;;;;;;;;2054141;28;20137;-81
2024/01/10 06:24:58;;;;;;;18.83;12.98;;;;;;;;;;2057668;28;20026;-80
2024/01/10 06:26:19;;;;;;;19.58;13.40;;;;;;;;;;2060960;28;21493;-81
2024/01/10 06:27:40;;;;;;;17.65;13.73;;;;;;;;;;2062178;28;20030;-81
2024/01/10 06:29:01;;;;;;;20.05;13.57;;;;;;;;;;2061249;28;20043;-80
2024/01/10 06:30:22;;;;;;;19.20;13.90;;;;;;;;;;2062605;28;20045;-81
2024/01/10 06:31:42;;;;;;;19.95;13.80;;;;;;;;;;2053271;28;20038;-81
2024/01/10 06:33:06;;;;;;;18.67;13.48;;;;;;;;;;2059864;28;20156;-82
2024/01/10 06:34:27;;;;;;;17.80;13.77;;;;;;;;;;2055611;28;20035;-81
2024/01/10 06:35:48;;;;;;;16.80;12.00;;;;;;;;;;2059824;28;20031;-81
2024/01/10 06:37:09;;;;;;;16.83;11.93;;;;;;;;;;2064734;28;20089;-81
2024/01/10 06:38:30;;;;;;;17.90;12.63;;;;;;;;;;2052511;28;20039;-82
2024/01/10 06:39:51;;;;;;;27.48;13.77;;;;;;;;;;2053793;28;20399;-81
2024/01/10 06:41:15;;;;;;;17.50;12.52;;;;;;;;;;2057081;28;20066;-82
2024/01/10 06:42:37;;;;;;;16.67;12.73;;;;;;;;;;2054150;28;20042;-81
2024/01/10 06:43:58;;;;;;;16.70;12.60;;;;;;;;;;2055736;28;20045;-82
2024/01/10 06:45:19;;;;;;;18.83;13.93;;;;;;;;;;2049702;28;20039;-82
2024/01/10 06:46:40;;;;;;;17.95;13.13;;;;;;;;;;2058105;28;20038;-82
2024/01/10 06:48:01;;;;;;;16.60;12.85;;;;;;;;;;2062222;28;20045;-82
2024/01/10 06:49:22;;;;;;;15.60;12.70;;;;;;;;;;2064397;28;20399;-82
2024/01/10 06:50:44;;;;;;;22.00;13.30;;;;;;;;;;2056284;28;20030;-82
2024/01/10 06:52:07;;;;;;;20.20;13.10;;;;;;;;;;2063698;28;20508;-82
2024/01/10 06:53:27;;;;;;;19.27;13.60;;;;;;;;;;2058251;28;20114;-82
2024/01/10 06:54:48;;;;;;;18.88;13.30;;;;;;;;;;2062147;28;20045;-82
2024/01/10 06:56:09;;;;;;;20.70;14.77;;;;;;;;;;2057520;28;20034;-83
2024/01/10 06:57:30;;;;;;;19.13;13.55;;;;;;;;;;2057571;28;20422;-82
2024/01/10 06:58:51;;;;;;;18.65;13.60;;;;;;;;;;2057768;28;20038;-83
2024/01/10 07:00:13;;;;;;;19.85;12.95;;;;;;;;;;2061870;28;20034;-85
2024/01/10 07:01:34;;;;;;;23.27;15.02;;;;;;;;;;2066729;28;20378;-84
2024/01/10 07:02:55;;;;;;;15.77;12.60;;;;;;;;;;2057504;28;20114;-85
2024/01/10 07:04:17;;;;;;;24.23;14.07;;;;;;;;;;2062916;28;20081;-85
2024/01/10 07:05:38;;;;;;;19.58;14.05;;;;;;;;;;2057480;28;20119;-86
2024/01/10 07:06:59;;;;;;;20.48;12.65;;;;;;;;;;2062661;28;20046;-86
2024/01/10 07:08:20;;;;;;;17.38;13.35;;;;;;;;;;2056799;28;20061;-84
2024/01/10 07:09:41;;;;;;;21.13;14.18;;;;;;;;;;2054388;28;20026;-85
2024/01/10 07:11:02;;;;;;;27.92;15.23;;;;;;;;;;2056673;28;20035;-85
2024/01/10 07:12:23;;;;;;;19.70;13.25;;;;;;;;;;2055836;28;20046;-85
2024/01/10 07:13:44;;;;;;;21.48;14.48;;;;;;;;;;2063687;28;20043;-85
2024/01/10 07:15:05;;;;;;;18.50;13.27;;;;;;;;;;2063871;28;20425;-83
2024/01/10 07:16:26;;;;;;;21.63;12.70;;;;;;;;;;2065140;28;20030;-85
2024/01/10 07:17:47;;;;;;;22.45;13.52;;;;;;;;;;2059163;28;20019;-84
2024/01/10 07:19:09;;;;;;;21.17;14.35;;;;;;;;;;2062232;28;20528;-85
2024/01/10 07:20:30;;;;;;;19.27;12.35;;;;;;;;;;2062394;28;20038;-85
2024/01/10 07:21:50;;;;;;;20.88;14.48;;;;;;;;;;2065411;28;20049;-85
2024/01/10 07:23:11;;;;;;;18.02;13.65;;;;;;;;;;2058162;28;20031;-85
2024/01/10 07:24:34;;;;;;;21.00;14.55;;;;;;;;;;2054340;28;20035;-85
2024/01/10 07:25:55;;;;;;;19.17;14.18;;;;;;;;;;2064191;28;20030;-84
2024/01/10 07:27:16;;;;;;;18.73;13.27;;;;;;;;;;2063033;28;20027;-85
2024/01/10 07:28:38;;;;;;;22.40;13.88;;;;;;;;;;2062544;28;20085;-85
2024/01/10 07:29:59;;;;;;;18.42;12.73;;;;;;;;;;2059823;28;20035;-83
2024/01/10 07:31:19;;;;;;;17.00;13.00;;;;;;;;;;2057523;28;20042;-85
2024/01/10 07:32:41;;;;;;;16.88;12.95;;;;;;;;;;2053788;28;20498;-83
2024/01/10 07:34:04;;;;;;;18.77;13.30;;;;;;;;;;2064229;28;20026;-87
2024/01/10 07:35:26;;;;;;;19.70;13.73;;;;;;;;;;2062563;28;20395;-86
2024/01/10 07:36:47;;;;;;;19.63;13.10;;;;;;;;;;2058098;28;20518;-86
2024/01/10 07:38:08;;;;;;;16.20;12.68;;;;;;;;;;2058508;28;20037;-86
2024/01/10 07:39:29;;;;;;;18.55;13.18;;;;;;;;;;2057423;28;20023;-86
2024/01/10 07:40:50;;;;;;;18.88;14.75;;;;;;;;;;2059635;28;20174;-85
2024/01/10 07:42:11;;;;;;;21.70;14.35;;;;;;;;;;2062240;28;20031;-85
2024/01/10 07:43:32;;;;;;;24.70;14.32;;;;;;;;;;2065820;28;20071;-85
2024/01/10 07:44:53;;;;;;;18.98;13.13;;;;;;;;;;2067040;28;20027;-85
2024/01/10 07:46:14;;;;;;;20.30;14.65;;;;;;;;;;2065623;28;20019;-85
2024/01/10 07:47:38;;;;;;;22.75;13.75;;;;;;;;;;2055878;28;20031;-86
2024/01/10 07:49:00;;;;;;;29.98;15.93;;;;;;;;;;2056230;28;20026;-85
2024/01/10 07:50:23;;;;;;;20.70;14.65;;;;;;;;;;2067226;28;20030;-84
2024/01/10 07:51:44;;;;;;;23.45;14.52;;;;;;;;;;2063642;28;20041;-84
2024/01/10 07:53:05;;;;;;;19.60;12.80;;;;;;;;;;2069448;28;20402;-86